Time;durP1;ratioP1;P1;durP2;ratioP2;P2;SDS_P1;SDS_P2;PMS_P1;PMS_P2;Temp;Humidity;BMP_temperature;BMP_pressure;BME280_temperature;BME280_humidity;BME280_pressure;Samples;Min_cycle;Max_cycle;Signal;HPM_P1;HPM_P2
2020/12/01 00:00:07;;;;;;;;;;;21.70;54.20;;;;;;5034188;28;19940;-73
2020/12/01 00:02:34;;;;;;;;;;;21.70;54.20;;;;;;5032595;28;19962;-72
2020/12/01 00:05:00;;;;;;;;;;;21.70;54.30;;;;;;5033388;28;20275;-74
2020/12/01 00:07:26;;;;;;;;;;;21.60;54.30;;;;;;5039827;28;19946;-73
2020/12/01 00:09:52;;;;;;;;;;;21.70;54.50;;;;;;5033102;28;20396;-72
2020/12/01 00:12:18;;;;;;;;;;;21.60;54.60;;;;;;5033937;28;19927;-73
2020/12/01 00:14:44;;;;;;;;;;;21.60;54.80;;;;;;5038009;28;19924;-75
2020/12/01 00:17:10;;;;;;;;;;;21.60;54.90;;;;;;5032136;28;19971;-73
2020/12/01 00:19:36;;;;;;;;;;;21.60;54.90;;;;;;5037230;28;20283;-73
2020/12/01 00:22:02;;;;;;;;;;;21.60;54.90;;;;;;5033971;28;20032;-73
2020/12/01 00:24:28;;;;;;;;;;;21.60;54.90;;;;;;5037012;28;20471;-73
2020/12/01 00:26:54;;;;;;;;;;;21.60;54.90;;;;;;5031795;28;19914;-72
2020/12/01 00:29:20;;;;;;;;;;;21.60;54.90;;;;;;5031873;28;19928;-73
2020/12/01 00:31:46;;;;;;;;;;;21.60;55.00;;;;;;5038058;28;20288;-72
2020/12/01 00:34:15;;;;;;;;;;;21.60;55.00;;;;;;5032218;28;19920;-72
2020/12/01 00:36:41;;;;;;;;;;;21.60;55.00;;;;;;5036072;28;19913;-73
2020/12/01 00:39:08;;;;;;;;;;;21.60;55.00;;;;;;5034978;28;19916;-72
2020/12/01 00:41:34;;;;;;;;;;;21.50;55.10;;;;;;5035563;28;19939;-73
2020/12/01 00:44:00;;;;;;;;;;;21.50;55.10;;;;;;5035684;28;19925;-72
2020/12/01 00:46:29;;;;;;;;;;;21.50;55.10;;;;;;5032043;28;20003;-73
2020/12/01 00:48:56;;;;;;;;;;;21.50;55.10;;;;;;5036938;28;19920;-73
2020/12/01 00:51:22;;;;;;;;;;;21.50;55.80;;;;;;5036587;28;20291;-73
2020/12/01 00:53:48;;;;;;;;;;;21.50;55.10;;;;;;5031738;28;20063;-72
2020/12/01 00:56:23;;;;;;;;;;;21.50;55.10;;;;;;5034829;28;19913;-73
2020/12/01 00:58:49;;;;;;;;;;;21.50;55.00;;;;;;5037753;28;20296;-73
2020/12/01 01:01:16;;;;;;;;;;;21.50;54.90;;;;;;5031937;28;19996;-73
2020/12/01 01:03:42;;;;;;;;;;;21.50;54.90;;;;;;5031964;28;19928;-74
2020/12/01 01:06:12;;;;;;;;;;;21.50;54.90;;;;;;5032717;28;20380;-73
2020/12/01 01:08:41;;;;;;;;;;;21.50;54.80;;;;;;5031349;28;20689;-72
2020/12/01 01:11:09;;;;;;;;;;;21.40;54.80;;;;;;5036256;28;20692;-73
2020/12/01 01:13:35;;;;;;;;;;;21.50;54.80;;;;;;5036867;28;19914;-73
2020/12/01 01:16:02;;;;;;;;;;;21.40;54.70;;;;;;5039082;28;19916;-73
2020/12/01 01:18:28;;;;;;;;;;;21.40;54.70;;;;;;5032512;28;19920;-72
2020/12/01 01:20:54;;;;;;;;;;;21.40;55.30;;;;;;5040340;28;19912;-73
2020/12/01 01:23:20;;;;;;;;;;;21.40;54.60;;;;;;5034689;28;19960;-72
2020/12/01 01:25:47;;;;;;;;;;;21.40;54.70;;;;;;5041466;28;20279;-73
2020/12/01 01:28:13;;;;;;;;;;;21.40;54.70;;;;;;5038793;28;19927;-73
2020/12/01 01:30:40;;;;;;;;;;;21.40;54.80;;;;;;5038072;28;20363;-73
2020/12/01 01:33:26;;;;;;;;;;;21.40;54.80;;;;;;5038205;28;20283;-73
2020/12/01 01:36:15;;;;;;;;;;;21.30;54.70;;;;;;5036953;28;19917;-72
2020/12/01 01:39:01;;;;;;;;;;;21.40;54.60;;;;;;5039608;28;19923;-74
2020/12/01 01:41:31;;;;;;;;;;;21.30;54.50;;;;;;5036983;28;20379;-74
2020/12/01 01:43:58;;;;;;;;;;;21.30;54.40;;;;;;5033916;28;20387;-74
2020/12/01 01:46:29;;;;;;;;;;;21.30;54.50;;;;;;5037886;28;19917;-74
2020/12/01 01:48:56;;;;;;;;;;;21.30;54.60;;;;;;5031843;28;19920;-75
2020/12/01 01:51:22;;;;;;;;;;;21.30;54.60;;;;;;5038137;28;19917;-74
2020/12/01 01:53:50;;;;;;;;;;;21.30;54.70;;;;;;5036768;28;19921;-73
2020/12/01 01:56:19;;;;;;;;;;;21.30;54.80;;;;;;5038282;28;19944;-74
2020/12/01 01:58:46;;;;;;;;;;;21.30;55.00;;;;;;5041131;28;19913;-75
2020/12/01 02:01:14;;;;;;;;;;;21.30;55.10;;;;;;5033728;28;19913;-72
2020/12/01 02:03:45;;;;;;;;;;;21.30;55.20;;;;;;5039600;28;19932;-74
2020/12/01 02:06:19;;;;;;;;;;;21.30;55.30;;;;;;5035946;28;19921;-74
2020/12/01 02:08:51;;;;;;;;;;;21.30;55.30;;;;;;5038756;28;19921;-72
2020/12/01 02:11:18;;;;;;;;;;;21.30;55.30;;;;;;5036149;28;20923;-74
2020/12/01 02:13:50;;;;;;;;;;;21.30;55.30;;;;;;5037398;28;20323;-73
2020/12/01 02:16:16;;;;;;;;;;;21.30;55.20;;;;;;5036730;28;19914;-73
2020/12/01 02:18:43;;;;;;;;;;;21.20;55.10;;;;;;5036232;28;19921;-73
2020/12/01 02:21:24;;;;;;;;;;;21.30;55.10;;;;;;5042243;28;19933;-73
2020/12/01 02:23:50;;;;;;;;;;;21.30;55.00;;;;;;5034788;28;20388;-73
2020/12/01 02:26:16;;;;;;;;;;;21.20;54.90;;;;;;5038138;28;19913;-73
2020/12/01 02:28:42;;;;;;;;;;;21.20;54.90;;;;;;5035205;28;19913;-73
2020/12/01 02:31:08;;;;;;;;;;;21.20;55.00;;;;;;5038501;28;19917;-72
2020/12/01 02:33:38;;;;;;;;;;;21.20;55.00;;;;;;5032956;28;20315;-74
2020/12/01 02:36:04;;;;;;;;;;;21.20;55.10;;;;;;5034615;28;20003;-74
2020/12/01 02:38:32;;;;;;;;;;;21.20;55.20;;;;;;5035475;28;19921;-74
2020/12/01 02:40:58;;;;;;;;;;;21.20;55.30;;;;;;5038179;28;19917;-71
2020/12/01 02:43:24;;;;;;;;;;;21.20;55.40;;;;;;5035815;28;20051;-72
2020/12/01 02:45:50;;;;;;;;;;;21.20;55.40;;;;;;5038353;28;19916;-75
2020/12/01 02:48:17;;;;;;;;;;;21.20;55.40;;;;;;5040316;28;20395;-73
2020/12/01 02:50:43;;;;;;;;;;;21.20;55.40;;;;;;5034164;28;19992;-73
2020/12/01 02:53:09;;;;;;;;;;;21.20;55.20;;;;;;5036423;28;20304;-71
2020/12/01 02:55:35;;;;;;;;;;;21.10;55.10;;;;;;5041004;28;19913;-73
2020/12/01 02:58:01;;;;;;;;;;;21.20;55.10;;;;;;5037007;28;19912;-71
2020/12/01 03:00:27;;;;;;;;;;;21.10;55.20;;;;;;5038664;28;20273;-73
2020/12/01 03:02:53;;;;;;;;;;;21.10;55.30;;;;;;5035839;28;20307;-71
2020/12/01 03:05:19;;;;;;;;;;;21.10;55.40;;;;;;5038009;28;19917;-73
2020/12/01 03:07:46;;;;;;;;;;;21.10;55.60;;;;;;5037218;28;20332;-73
2020/12/01 03:10:12;;;;;;;;;;;21.10;55.70;;;;;;5032188;28;19909;-72
2020/12/01 03:12:38;;;;;;;;;;;21.10;55.90;;;;;;5036134;28;20315;-72
2020/12/01 03:15:09;;;;;;;;;;;21.00;56.00;;;;;;5036559;28;19936;-72
2020/12/01 03:17:36;;;;;;;;;;;21.00;56.00;;;;;;5040103;28;19913;-72
2020/12/01 03:20:02;;;;;;;;;;;21.00;56.20;;;;;;5032659;28;19917;-72
2020/12/01 03:22:28;;;;;;;;;;;21.00;56.40;;;;;;5032323;28;19928;-72
2020/12/01 03:24:54;;;;;;;;;;;21.00;56.50;;;;;;5038990;28;19917;-72
2020/12/01 03:27:20;;;;;;;;;;;21.00;56.60;;;;;;5040825;28;19917;-74
2020/12/01 03:29:46;;;;;;;;;;;21.00;56.60;;;;;;5035301;28;19909;-74
2020/12/01 03:32:12;;;;;;;;;;;21.00;56.60;;;;;;5070485;28;19916;-75
2020/12/01 03:34:39;;;;;;;;;;;21.00;56.60;;;;;;5040125;28;19967;-74
2020/12/01 03:37:24;;;;;;;;;;;21.00;56.50;;;;;;5034259;28;19923;-74
2020/12/01 03:40:10;;;;;;;;;;;21.00;56.50;;;;;;5036499;28;19978;-74
2020/12/01 03:42:56;;;;;;;;;;;21.00;56.50;;;;;;5034910;28;19921;-77
2020/12/01 03:45:42;;;;;;;;;;;21.00;56.60;;;;;;5034045;28;19913;-75
2020/12/01 03:48:29;;;;;;;;;;;21.00;56.60;;;;;;5035879;28;19917;-72
2020/12/01 03:51:14;;;;;;;;;;;21.00;56.70;;;;;;5033478;28;19963;-77
2020/12/01 03:54:00;;;;;;;;;;;21.00;56.80;;;;;;5033963;28;19914;-76
2020/12/01 03:56:26;;;;;;;;;;;21.00;56.90;;;;;;5042447;28;19913;-77
2020/12/01 03:58:53;;;;;;;;;;;21.00;57.00;;;;;;5036101;28;19913;-73
2020/12/01 04:01:19;;;;;;;;;;;21.00;57.20;;;;;;5036057;28;19913;-79
2020/12/01 04:03:45;;;;;;;;;;;21.00;57.30;;;;;;5033992;28;20479;-72
2020/12/01 04:06:11;;;;;;;;;;;21.00;57.40;;;;;;5034855;28;19917;-72
2020/12/01 04:08:37;;;;;;;;;;;21.00;57.40;;;;;;5033312;28;19909;-74
2020/12/01 04:11:04;;;;;;;;;;;21.00;57.50;;;;;;5037296;28;19963;-73
2020/12/01 04:13:31;;;;;;;;;;;21.00;57.60;;;;;;5034709;28;19967;-74
2020/12/01 04:15:57;;;;;;;;;;;20.90;57.70;;;;;;5038019;28;19913;-74
2020/12/01 04:18:23;;;;;;;;;;;21.00;57.80;;;;;;5039894;28;19909;-75
2020/12/01 04:20:49;;;;;;;;;;;21.00;57.80;;;;;;5037805;28;19917;-73
2020/12/01 04:23:15;;;;;;;;;;;21.00;57.80;;;;;;5033081;28;19971;-72
2020/12/01 04:25:41;;;;;;;;;;;21.00;57.80;;;;;;5036507;28;20430;-74
2020/12/01 04:28:08;;;;;;;;;;;21.00;57.90;;;;;;5035286;28;19909;-72
2020/12/01 04:30:34;;;;;;;;;;;21.00;58.00;;;;;;5038954;28;19913;-72
2020/12/01 04:33:00;;;;;;;;;;;21.00;58.20;;;;;;5029592;28;19913;-71
2020/12/01 04:35:27;;;;;;;;;;;21.00;58.20;;;;;;5038328;28;20279;-72
2020/12/01 04:37:56;;;;;;;;;;;21.00;58.30;;;;;;5033714;28;19958;-73
2020/12/01 04:40:24;;;;;;;;;;;21.00;58.40;;;;;;5036216;28;19967;-73
2020/12/01 04:42:52;;;;;;;;;;;21.00;58.50;;;;;;5037180;28;19940;-73
2020/12/01 04:45:18;;;;;;;;;;;21.00;58.60;;;;;;5031114;28;19918;-72
2020/12/01 04:48:22;;;;;;;;;;;21.00;58.60;;;;;;5037073;28;19917;-71
2020/12/01 04:50:52;;;;;;;;;;;21.00;58.70;;;;;;4982252;28;20391;-71
2020/12/01 04:53:33;;;;;;;;;;;21.00;58.60;;;;;;4983109;28;19918;-71
2020/12/01 04:56:08;;;;;;;;;;;21.00;58.30;;;;;;5008651;28;19917;-71
2020/12/01 04:58:37;;;;;;;;;;;21.00;58.00;;;;;;5036938;28;20390;-71
2020/12/01 05:01:09;;;;;;;;;;;21.00;57.50;;;;;;5038364;28;19917;-71
2020/12/01 05:03:49;;;;;;;;;;;21.00;57.20;;;;;;5037579;28;19925;-71
2020/12/01 05:09:19;;;;;;;;;;;21.00;56.70;;;;;;5040744;28;20399;-71
2020/12/01 05:11:49;;;;;;;;;;;21.00;56.60;;;;;;5037425;28;20384;-72
2020/12/01 05:14:15;;;;;;;;;;;21.00;56.70;;;;;;5042074;28;19924;-71
2020/12/01 05:16:41;;;;;;;;;;;20.90;56.90;;;;;;5035776;28;20016;-71
2020/12/01 05:19:31;;;;;;;;;;;20.90;57.20;;;;;;5039606;28;19913;-71
2020/12/01 05:21:57;;;;;;;;;;;20.90;57.60;;;;;;5038127;28;19917;-72
2020/12/01 05:24:24;;;;;;;;;;;20.90;58.00;;;;;;5039380;28;20008;-70
2020/12/01 05:26:50;;;;;;;;;;;20.90;58.40;;;;;;5043577;28;19921;-71
2020/12/01 05:29:25;;;;;;;;;;;20.90;58.60;;;;;;5039981;28;20433;-72
2020/12/01 05:31:51;;;;;;;;;;;20.90;58.70;;;;;;5039058;28;19921;-71
2020/12/01 05:34:18;;;;;;;;;;;20.90;58.80;;;;;;5070479;28;20472;-71
2020/12/01 05:36:45;;;;;;;;;;;21.00;58.90;;;;;;5036337;28;20319;-71
2020/12/01 05:39:14;;;;;;;;;;;21.00;58.90;;;;;;5035330;28;20050;-72
2020/12/01 05:41:41;;;;;;;;;;;21.00;58.90;;;;;;5037984;28;20686;-71
2020/12/01 05:44:16;;;;;;;;;;;21.00;58.80;;;;;;5036430;28;19931;-71
2020/12/01 05:46:51;;;;;;;;;;;21.00;58.70;;;;;;5035390;28;19913;-71
2020/12/01 05:49:29;;;;;;;;;;;21.10;58.40;;;;;;5035890;28;19956;-71
2020/12/01 05:52:16;;;;;;;;;;;21.10;58.20;;;;;;5038033;28;19951;-71
2020/12/01 05:54:45;;;;;;;;;;;21.20;58.10;;;;;;5038094;28;19956;-71
2020/12/01 05:57:27;;;;;;;;;;;21.30;58.00;;;;;;5036286;28;19913;-71
2020/12/01 06:00:12;;;;;;;;;;;21.30;57.80;;;;;;5037327;28;19916;-72
2020/12/01 06:02:41;;;;;;;;;;;21.40;57.60;;;;;;5038087;28;19927;-72
2020/12/01 06:05:12;;;;;;;;;;;21.50;57.40;;;;;;5037496;28;19918;-71
2020/12/01 06:07:57;;;;;;;;;;;21.50;57.10;;;;;;5033980;28;19910;-71
2020/12/01 06:10:50;;;;;;;;;;;21.60;56.80;;;;;;5041302;28;19952;-71
2020/12/01 06:13:41;;;;;;;;;;;21.60;56.60;;;;;;5041951;28;19939;-73
2020/12/01 06:16:07;;;;;;;;;;;21.60;56.30;;;;;;5032010;28;19994;-76
2020/12/01 06:19:11;;;;;;;;;;;21.80;54.40;;;;;;5038438;28;20367;-73
2020/12/01 06:21:37;;;;;;;;;;;21.70;54.40;;;;;;5035175;28;19921;-75
2020/12/01 06:24:23;;;;;;;;;;;21.50;55.20;;;;;;5031059;28;19936;-78
2020/12/01 06:27:08;;;;;;;;;;;21.40;55.80;;;;;;5040908;28;19925;-75
2020/12/01 06:29:40;;;;;;;;;;;21.30;55.90;;;;;;5066208;28;20421;-77
2020/12/01 06:32:12;;;;;;;;;;;21.30;55.60;;;;;;5034885;28;20279;-76
2020/12/01 06:34:58;;;;;;;;;;;21.30;55.40;;;;;;5038121;28;19913;-77
2020/12/01 06:37:26;;;;;;;;;;;21.20;55.90;;;;;;5033185;28;19996;-77
2020/12/01 06:40:06;;;;;;;;;;;21.00;56.30;;;;;;5043276;28;19917;-76
2020/12/01 06:42:38;;;;;;;;;;;21.00;56.40;;;;;;5036615;28;20256;-75
2020/12/01 06:45:10;;;;;;;;;;;21.00;56.40;;;;;;5035733;28;19913;-77
2020/12/01 06:47:36;;;;;;;;;;;21.00;57.00;;;;;;5031461;28;19914;-73
2020/12/01 06:50:07;;;;;;;;;;;20.90;57.50;;;;;;5035895;28;19924;-75
2020/12/01 06:52:33;;;;;;;;;;;20.90;57.80;;;;;;5036567;28;20396;-77
2020/12/01 06:55:00;;;;;;;;;;;20.90;58.20;;;;;;5035771;28;19913;-77
2020/12/01 06:57:28;;;;;;;;;;;20.90;58.90;;;;;;5038118;28;20008;-77
2020/12/01 06:59:55;;;;;;;;;;;21.00;58.70;;;;;;5033749;28;19917;-77
2020/12/01 07:02:21;;;;;;;;;;;21.00;58.90;;;;;;5035938;28;19932;-77
2020/12/01 07:04:47;;;;;;;;;;;21.10;59.70;;;;;;5037284;28;20020;-77
2020/12/01 07:07:40;;;;;;;;;;;21.10;59.30;;;;;;5037803;28;19919;-77
2020/12/01 07:10:13;;;;;;;;;;;21.10;59.60;;;;;;5031507;28;19913;-78
2020/12/01 07:12:48;;;;;;;;;;;21.20;58.50;;;;;;5066776;28;19913;-76
2020/12/01 07:15:14;;;;;;;;;;;21.30;57.90;;;;;;5037298;28;19916;-77
2020/12/01 07:17:56;;;;;;;;;;;21.20;58.10;;;;;;5033888;28;19983;-76
2020/12/01 07:20:30;;;;;;;;;;;21.20;58.50;;;;;;5035853;28;20071;-77
2020/12/01 07:22:56;;;;;;;;;;;21.20;58.10;;;;;;5038228;28;19921;-78
2020/12/01 07:25:30;;;;;;;;;;;21.30;57.70;;;;;;5032609;28;20015;-77
2020/12/01 07:28:15;;;;;;;;;;;21.40;57.30;;;;;;5036633;28;19932;-78
2020/12/01 07:30:56;;;;;;;;;;;21.40;56.90;;;;;;5035837;28;19927;-78
2020/12/01 07:33:44;;;;;;;;;;;21.50;56.60;;;;;;5040656;28;19917;-77
2020/12/01 07:36:13;;;;;;;;;;;21.50;57.30;;;;;;5037944;28;20374;-77
2020/12/01 07:38:44;;;;;;;;;;;21.50;57.00;;;;;;5041311;28;19912;-78
2020/12/01 07:41:22;;;;;;;;;;;21.60;56.50;;;;;;5037811;28;20307;-78
2020/12/01 07:43:58;;;;;;;;;;;21.60;57.40;;;;;;5031205;28;19921;-74
2020/12/01 07:46:25;;;;;;;;;;;21.70;56.60;;;;;;5038359;28;19938;-75
2020/12/01 07:49:01;;;;;;;;;;;21.70;55.80;;;;;;5036949;28;19913;-75
2020/12/01 07:51:28;;;;;;;;;;;21.80;55.70;;;;;;5032023;28;19952;-77
2020/12/01 07:53:56;;;;;;;;;;;21.80;56.20;;;;;;5036022;28;19914;-76
2020/12/01 07:56:24;;;;;;;;;;;21.80;57.00;;;;;;5034659;28;19952;-77
2020/12/01 07:59:09;;;;;;;;;;;21.90;55.80;;;;;;5035279;28;19917;-77
2020/12/01 08:01:35;;;;;;;;;;;22.00;56.60;;;;;;5034203;28;19913;-77
2020/12/01 08:04:05;;;;;;;;;;;22.10;56.20;;;;;;5034361;28;19921;-78
2020/12/01 08:06:32;;;;;;;;;;;22.20;56.90;;;;;;5035498;28;19959;-75
2020/12/01 08:08:58;;;;;;;;;;;22.20;55.80;;;;;;5032114;28;19912;-76
2020/12/01 08:11:24;;;;;;;;;;;22.20;55.60;;;;;;5071287;28;20268;-74
2020/12/01 08:13:52;;;;;;;;;;;22.30;56.00;;;;;;5033179;28;19913;-74
2020/12/01 08:16:19;;;;;;;;;;;22.20;56.60;;;;;;5037689;28;19923;-75
2020/12/01 08:18:46;;;;;;;;;;;22.00;56.40;;;;;;5032708;28;19952;-75
2020/12/01 08:21:14;;;;;;;;;;;21.90;57.80;;;;;;5037096;28;20002;-74
2020/12/01 08:23:43;;;;;;;;;;;21.80;57.60;;;;;;5033198;28;19932;-76
2020/12/01 08:26:17;;;;;;;;;;;21.80;57.90;;;;;;5036092;28;19912;-76
2020/12/01 08:28:48;;;;;;;;;;;21.80;58.00;;;;;;5037144;28;20022;-76
2020/12/01 08:31:29;;;;;;;;;;;21.80;58.30;;;;;;5030694;28;20272;-77
2020/12/01 08:34:09;;;;;;;;;;;21.80;58.30;;;;;;5032589;28;19913;-78
2020/12/01 08:36:53;;;;;;;;;;;21.80;57.50;;;;;;5034858;28;19913;-78
2020/12/01 08:39:38;;;;;;;;;;;21.80;57.90;;;;;;5037247;28;19913;-75
2020/12/01 08:42:22;;;;;;;;;;;21.90;57.00;;;;;;5065100;28;20318;-77
2020/12/01 08:45:10;;;;;;;;;;;22.10;57.10;;;;;;5034392;28;20186;-77
2020/12/01 08:47:36;;;;;;;;;;;22.20;55.50;;;;;;5033353;28;19913;-75
2020/12/01 08:50:22;;;;;;;;;;;22.30;55.10;;;;;;5030330;28;20275;-77
2020/12/01 08:53:08;;;;;;;;;;;22.30;54.10;;;;;;5031053;28;19912;-80
2020/12/01 08:55:55;;;;;;;;;;;22.30;54.00;;;;;;5029590;28;19919;-76
2020/12/01 08:58:27;;;;;;;;;;;22.20;54.10;;;;;;5030002;28;19913;-78
2020/12/01 09:01:22;;;;;;;;;;;22.10;54.60;;;;;;5033560;28;19921;-71
2020/12/01 09:04:11;;;;;;;;;;;21.90;54.90;;;;;;5034544;28;19932;-76
2020/12/01 09:06:57;;;;;;;;;;;21.80;55.40;;;;;;5037458;28;19927;-76
2020/12/01 09:09:43;;;;;;;;;;;21.80;55.70;;;;;;5031578;28;20288;-75
2020/12/01 09:12:41;;;;;;;;;;;21.70;56.20;;;;;;5034997;28;20379;-75
2020/12/01 09:24:18;;;;;;;;;;;21.80;57.60;;;;;;5034802;28;19928;-76
2020/12/01 09:27:04;;;;;;;;;;;21.80;57.50;;;;;;5032083;28;19960;-76
2020/12/01 09:29:50;;;;;;;;;;;22.00;57.60;;;;;;5039925;28;19909;-76
2020/12/01 09:32:36;;;;;;;;;;;22.20;57.20;;;;;;5032804;28;19921;-77
2020/12/01 09:35:22;;;;;;;;;;;22.30;56.50;;;;;;5038353;28;20007;-74
2020/12/01 09:38:08;;;;;;;;;;;22.20;56.80;;;;;;5035515;28;19913;-75
2020/12/01 09:40:53;;;;;;;;;;;22.30;56.50;;;;;;5029086;28;19956;-77
2020/12/01 09:43:45;;;;;;;;;;;22.30;56.50;;;;;;5033182;28;19943;-77
2020/12/01 09:46:59;;;;;;;;;;;22.30;56.60;;;;;;5038843;28;19924;-76
2020/12/01 09:49:37;;;;;;;;;;;22.30;56.70;;;;;;5036335;28;19939;-77
2020/12/01 09:52:29;;;;;;;;;;;22.00;57.40;;;;;;5035379;28;19924;-76
2020/12/01 10:12:34;;;;;;;;;;;22.10;56.00;;;;;;5033285;28;19937;-76
2020/12/01 10:17:56;;;;;;;;;;;22.30;56.50;;;;;;5034356;28;19967;-75
2020/12/01 10:34:48;;;;;;;;;;;22.70;55.30;;;;;;5041080;28;20471;-72
2020/12/01 10:37:14;;;;;;;;;;;22.70;55.40;;;;;;5034871;28;19923;-75
2020/12/01 10:39:40;;;;;;;;;;;22.80;55.70;;;;;;5037393;28;19913;-78
2020/12/01 10:42:15;;;;;;;;;;;22.80;54.40;;;;;;5035810;28;19928;-76
2020/12/01 10:44:42;;;;;;;;;;;22.70;54.60;;;;;;5044433;28;19917;-74
2020/12/01 10:47:08;;;;;;;;;;;22.60;54.80;;;;;;5038880;28;20360;-73
2020/12/01 10:49:34;;;;;;;;;;;22.50;54.80;;;;;;5037581;28;20358;-73
2020/12/01 10:52:01;;;;;;;;;;;22.40;54.90;;;;;;5041817;28;19988;-73
2020/12/01 10:54:27;;;;;;;;;;;22.40;55.30;;;;;;5036930;28;19913;-73
2020/12/01 10:57:13;;;;;;;;;;;22.30;55.80;;;;;;5031941;28;19924;-74
2020/12/01 10:59:58;;;;;;;;;;;22.30;56.20;;;;;;5033343;28;19917;-72
2020/12/01 11:02:44;;;;;;;;;;;22.50;55.50;;;;;;5038662;28;19925;-73
2020/12/01 11:05:30;;;;;;;;;;;22.60;54.00;;;;;;5037646;28;20024;-74
2020/12/01 11:08:16;;;;;;;;;;;22.80;54.10;;;;;;5037156;28;20312;-74
2020/12/01 11:11:02;;;;;;;;;;;22.90;52.80;;;;;;5035034;28;19917;-75
2020/12/01 11:13:28;;;;;;;;;;;23.20;52.60;;;;;;5034814;28;19924;-76
2020/12/01 11:15:55;;;;;;;;;;;23.20;52.80;;;;;;5039432;28;19916;-74
2020/12/01 11:18:21;;;;;;;;;;;23.40;52.30;;;;;;5038240;28;19917;-74
2020/12/01 11:20:47;;;;;;;;;;;23.50;52.20;;;;;;5036014;28;19916;-75
2020/12/01 11:23:13;;;;;;;;;;;23.70;52.00;;;;;;5041505;28;20399;-75
2020/12/01 11:25:39;;;;;;;;;;;23.80;51.20;;;;;;5032991;28;19913;-75
2020/12/01 11:28:06;;;;;;;;;;;23.80;50.70;;;;;;5033084;28;20094;-73
2020/12/01 11:30:32;;;;;;;;;;;23.80;51.00;;;;;;5030517;28;20334;-73
2020/12/01 11:32:58;;;;;;;;;;;23.60;51.40;;;;;;5035830;28;19917;-73
2020/12/01 11:35:24;;;;;;;;;;;23.50;51.70;;;;;;5034928;28;20003;-73
2020/12/01 11:37:52;;;;;;;;;;;23.40;51.90;;;;;;5033236;28;20295;-73
2020/12/01 11:40:18;;;;;;;;;;;23.20;52.90;;;;;;5069879;28;19920;-75
2020/12/01 11:42:44;;;;;;;;;;;23.20;52.00;;;;;;5033351;28;19927;-74
2020/12/01 11:45:11;;;;;;;;;;;23.20;52.20;;;;;;5032313;28;19917;-73
2020/12/01 11:47:37;;;;;;;;;;;23.20;51.60;;;;;;5035629;28;20011;-75
2020/12/01 11:50:05;;;;;;;;;;;23.20;52.00;;;;;;5037810;28;20047;-75
2020/12/01 11:52:31;;;;;;;;;;;23.30;51.10;;;;;;5035099;28;20000;-74
2020/12/01 11:54:57;;;;;;;;;;;23.30;51.40;;;;;;5035208;28;20280;-74
2020/12/01 11:57:23;;;;;;;;;;;23.30;52.10;;;;;;5036494;28;20007;-75
2020/12/01 11:59:49;;;;;;;;;;;23.30;51.60;;;;;;5034973;28;19917;-71
2020/12/01 12:02:15;;;;;;;;;;;23.30;51.80;;;;;;5036558;28;19921;-73
2020/12/01 12:04:41;;;;;;;;;;;23.30;51.60;;;;;;5033701;28;20284;-78
2020/12/01 12:07:07;;;;;;;;;;;23.30;51.60;;;;;;5036244;28;20040;-79
2020/12/01 12:09:34;;;;;;;;;;;23.40;51.90;;;;;;5036167;28;19920;-76
2020/12/01 12:12:00;;;;;;;;;;;23.40;52.10;;;;;;5034342;28;20323;-76
2020/12/01 12:14:26;;;;;;;;;;;23.50;52.40;;;;;;5035926;28;19921;-74
2020/12/01 12:16:52;;;;;;;;;;;23.60;52.60;;;;;;5030837;28;19921;-75
2020/12/01 12:19:18;;;;;;;;;;;23.70;52.50;;;;;;5032751;28;20419;-75
2020/12/01 12:21:44;;;;;;;;;;;23.80;52.40;;;;;;5030125;28;20004;-73
2020/12/01 12:24:10;;;;;;;;;;;23.90;52.20;;;;;;5034183;28;19925;-72
2020/12/01 12:26:36;;;;;;;;;;;24.00;52.00;;;;;;5033566;28;19983;-74
2020/12/01 12:29:02;;;;;;;;;;;24.10;51.70;;;;;;5033644;28;20011;-77
2020/12/01 12:31:29;;;;;;;;;;;24.10;51.70;;;;;;5035951;28;19918;-72
2020/12/01 12:33:55;;;;;;;;;;;24.10;51.70;;;;;;5034329;28;19928;-75
2020/12/01 12:36:21;;;;;;;;;;;24.00;51.40;;;;;;5032697;28;19909;-74
2020/12/01 12:38:47;;;;;;;;;;;24.00;51.50;;;;;;5036844;28;19914;-75
2020/12/01 12:41:13;;;;;;;;;;;24.00;51.40;;;;;;5035288;28;19921;-75
2020/12/01 12:43:39;;;;;;;;;;;24.10;51.40;;;;;;5036049;28;20475;-73
2020/12/01 12:46:05;;;;;;;;;;;24.00;51.70;;;;;;5037950;28;19963;-74
2020/12/01 12:48:32;;;;;;;;;;;24.00;51.70;;;;;;5038893;28;19920;-76
2020/12/01 12:50:58;;;;;;;;;;;24.00;51.80;;;;;;5031186;28;19917;-74
2020/12/01 12:53:24;;;;;;;;;;;24.00;51.70;;;;;;5034669;28;19935;-75
2020/12/01 12:55:51;;;;;;;;;;;24.00;52.30;;;;;;5031499;28;19930;-74
2020/12/01 12:58:17;;;;;;;;;;;24.00;51.50;;;;;;5040079;28;19913;-73
2020/12/01 13:00:43;;;;;;;;;;;24.10;51.80;;;;;;5032504;28;19913;-73
2020/12/01 13:03:09;;;;;;;;;;;24.10;51.90;;;;;;5070966;28;19925;-72
2020/12/01 13:05:35;;;;;;;;;;;24.10;51.60;;;;;;5035520;28;20661;-72
2020/12/01 13:08:05;;;;;;;;;;;24.10;51.60;;;;;;5036074;28;19956;-72
2020/12/01 13:10:31;;;;;;;;;;;24.10;51.50;;;;;;5036550;28;20003;-72
2020/12/01 13:12:59;;;;;;;;;;;24.00;51.30;;;;;;5033056;28;19951;-72
2020/12/01 13:15:25;;;;;;;;;;;24.00;51.30;;;;;;5032013;28;19917;-72
2020/12/01 13:17:51;;;;;;;;;;;24.00;51.30;;;;;;5032361;28;19940;-72
2020/12/01 13:20:19;;;;;;;;;;;24.00;51.20;;;;;;5036370;28;20553;-72
2020/12/01 13:22:46;;;;;;;;;;;23.90;51.20;;;;;;5036269;28;19940;-73
2020/12/01 13:25:12;;;;;;;;;;;23.90;51.50;;;;;;5035616;28;20000;-75
2020/12/01 13:27:38;;;;;;;;;;;23.90;51.90;;;;;;5041774;28;19996;-73
2020/12/01 13:30:05;;;;;;;;;;;23.80;52.30;;;;;;5035560;28;19913;-74
2020/12/01 13:32:31;;;;;;;;;;;23.70;52.50;;;;;;5036926;28;20352;-75
2020/12/01 13:34:57;;;;;;;;;;;23.60;52.90;;;;;;5031127;28;19913;-74
2020/12/01 13:37:23;;;;;;;;;;;23.60;52.90;;;;;;5034675;28;20531;-73
2020/12/01 13:39:49;;;;;;;;;;;23.50;52.90;;;;;;5033430;28;20016;-74
2020/12/01 13:42:15;;;;;;;;;;;23.50;52.80;;;;;;5035072;28;20607;-74
2020/12/01 13:44:41;;;;;;;;;;;23.50;52.90;;;;;;5038987;28;19913;-75
2020/12/01 13:47:07;;;;;;;;;;;23.50;52.70;;;;;;5035947;28;20371;-72
2020/12/01 13:49:33;;;;;;;;;;;23.40;52.70;;;;;;5039409;28;19913;-73
2020/12/01 13:52:00;;;;;;;;;;;23.40;52.70;;;;;;5037329;28;19971;-73
2020/12/01 13:54:26;;;;;;;;;;;23.30;52.70;;;;;;5037098;28;19913;-73
2020/12/01 13:56:52;;;;;;;;;;;23.30;52.40;;;;;;5040251;28;19928;-72
2020/12/01 13:59:18;;;;;;;;;;;23.30;52.30;;;;;;5036504;28;19917;-73
2020/12/01 14:01:45;;;;;;;;;;;23.20;52.20;;;;;;5039780;28;20275;-77
2020/12/01 14:04:11;;;;;;;;;;;23.20;52.10;;;;;;5036818;28;19934;-74
2020/12/01 14:06:37;;;;;;;;;;;23.20;51.90;;;;;;5044070;28;19971;-72
2020/12/01 14:09:04;;;;;;;;;;;23.10;51.60;;;;;;5037681;28;19915;-72
2020/12/01 14:11:30;;;;;;;;;;;23.10;51.60;;;;;;5037838;28;19920;-72
2020/12/01 14:13:56;;;;;;;;;;;23.10;51.50;;;;;;5034856;28;20000;-72
2020/12/01 14:16:42;;;;;;;;;;;23.10;51.30;;;;;;5042797;28;19940;-76
2020/12/01 14:19:28;;;;;;;;;;;23.10;51.20;;;;;;5033467;28;20276;-72
2020/12/01 14:22:13;;;;;;;;;;;23.10;50.90;;;;;;5034343;28;19944;-75
2020/12/01 14:24:59;;;;;;;;;;;23.10;50.60;;;;;;5029740;28;19936;-76
2020/12/01 14:27:25;;;;;;;;;;;23.10;50.40;;;;;;5032018;28;20610;-76
2020/12/01 14:29:52;;;;;;;;;;;23.10;50.20;;;;;;5033263;28;20021;-71
2020/12/01 14:32:18;;;;;;;;;;;23.10;49.90;;;;;;5030880;28;20343;-71
2020/12/01 14:34:44;;;;;;;;;;;23.10;49.60;;;;;;5038685;28;19992;-71
2020/12/01 14:37:14;;;;;;;;;;;23.20;49.60;;;;;;5035092;28;19917;-71
2020/12/01 14:39:44;;;;;;;;;;;23.20;49.40;;;;;;5034967;28;19918;-74
2020/12/01 14:42:11;;;;;;;;;;;23.20;49.10;;;;;;5033632;28;20253;-73
2020/12/01 14:44:38;;;;;;;;;;;23.30;48.90;;;;;;5031628;28;20434;-71
2020/12/01 14:47:42;;;;;;;;;;;23.40;48.70;;;;;;5036351;28;20395;-71
2020/12/01 14:50:31;;;;;;;;;;;23.40;48.60;;;;;;5014663;28;19918;-74
2020/12/01 14:53:03;;;;;;;;;;;23.50;48.30;;;;;;4993349;28;19932;-75
2020/12/01 14:55:44;;;;;;;;;;;23.50;47.80;;;;;;5029268;28;19917;-73
2020/12/01 14:58:20;;;;;;;;;;;23.60;47.50;;;;;;5035801;28;20394;-73
2020/12/01 15:01:04;;;;;;;;;;;23.60;47.30;;;;;;5033024;28;19913;-76
2020/12/01 15:03:37;;;;;;;;;;;23.70;47.30;;;;;;5034867;28;20346;-68
2020/12/01 15:06:09;;;;;;;;;;;23.70;46.90;;;;;;5032313;28;20379;-71
2020/12/01 15:08:56;;;;;;;;;;;23.80;46.80;;;;;;5030806;28;20003;-72
2020/12/01 15:11:40;;;;;;;;;;;23.90;46.60;;;;;;5035378;28;19939;-72
2020/12/01 15:14:07;;;;;;;;;;;24.00;46.40;;;;;;5032808;28;19949;-74
2020/12/01 15:16:33;;;;;;;;;;;24.00;46.20;;;;;;5032358;28;19917;-73
2020/12/01 15:19:00;;;;;;;;;;;24.10;46.30;;;;;;5034385;28;19956;-73
2020/12/01 15:21:38;;;;;;;;;;;24.10;45.60;;;;;;5033728;28;19913;-77
2020/12/01 15:24:08;;;;;;;;;;;24.20;45.50;;;;;;5031350;28;19983;-74
2020/12/01 15:26:35;;;;;;;;;;;24.20;44.70;;;;;;5033847;28;20500;-77